Time;durP1;ratioP1;P1;durP2;ratioP2;P2;SDS_P1;SDS_P2;PMS_P1;PMS_P2;Temp;Humidity;BMP_temperature;BMP_pressure;BME280_temperature;BME280_humidity;BME280_pressure;Samples;Min_cycle;Max_cycle;Signal;HPM_P1;HPM_P2
2022/04/18 00:01:27;;;;;;;16.15;13.90;;;8.60;79.20;;;;;;5100504;27;20047;-79
2022/04/18 00:03:55;;;;;;;16.23;13.85;;;8.60;79.00;;;;;;5099519;27;20038;-78
2022/04/18 00:06:21;;;;;;;16.73;14.13;;;8.70;79.90;;;;;;5114977;27;20047;-80
2022/04/18 00:08:47;;;;;;;15.57;13.88;;;8.60;80.60;;;;;;5086394;27;20744;-78
2022/04/18 00:11:13;;;;;;;16.52;13.75;;;8.50;80.80;;;;;;5125469;27;20074;-79
2022/04/18 00:13:38;;;;;;;15.20;13.05;;;8.50;81.30;;;;;;5085508;27;20084;-78
2022/04/18 00:16:04;;;;;;;15.82;13.27;;;8.50;81.50;;;;;;5084031;28;20485;-78
2022/04/18 00:18:30;;;;;;;15.23;12.77;;;8.50;81.60;;;;;;5121874;27;20054;-79
2022/04/18 00:20:56;;;;;;;17.05;13.63;;;8.50;82.00;;;;;;5122170;27;20107;-79
2022/04/18 00:23:22;;;;;;;16.48;14.05;;;8.50;82.00;;;;;;5086584;28;20510;-79
2022/04/18 00:25:48;;;;;;;15.65;14.00;;;8.50;82.90;;;;;;5121537;27;20265;-79
2022/04/18 00:28:15;;;;;;;15.02;13.43;;;8.40;82.20;;;;;;5120617;28;20575;-78
2022/04/18 00:30:41;;;;;;;15.40;13.68;;;8.40;82.50;;;;;;5122203;28;20104;-79
2022/04/18 00:33:09;;;;;;;15.90;13.23;;;8.30;82.80;;;;;;5121571;28;20051;-79
2022/04/18 00:35:35;;;;;;;15.10;13.40;;;8.40;82.60;;;;;;5106927;28;20449;-79
2022/04/18 00:38:05;;;;;;;15.70;13.15;;;8.30;82.40;;;;;;5121921;28;20055;-80
2022/04/18 00:40:30;;;;;;;15.18;13.40;;;8.30;82.40;;;;;;5122808;28;20774;-78
2022/04/18 00:43:06;;;;;;;15.10;13.20;;;8.30;82.60;;;;;;5104761;28;20032;-79
2022/04/18 00:45:35;;;;;;;15.27;13.02;;;8.30;82.60;;;;;;5124279;27;20039;-79
2022/04/18 00:48:02;;;;;;;14.90;12.63;;;8.30;83.40;;;;;;5105411;28;20043;-78
2022/04/18 00:50:31;;;;;;;16.35;13.73;;;8.30;83.40;;;;;;5123134;28;20520;-78
2022/04/18 00:52:57;;;;;;;16.92;13.82;;;8.30;82.40;;;;;;5119394;28;20043;-78
2022/04/18 00:55:26;;;;;;;15.93;13.50;;;8.30;82.80;;;;;;5104877;28;20047;-78
2022/04/18 00:57:54;;;;;;;14.55;13.00;;;8.20;82.20;;;;;;5121809;28;20039;-80
2022/04/18 01:00:22;;;;;;;16.55;13.38;;;8.30;83.10;;;;;;5121029;28;20076;-78
2022/04/18 01:02:48;;;;;;;14.85;13.27;;;8.20;82.80;;;;;;5088910;28;20051;-79
2022/04/18 01:05:14;;;;;;;16.25;13.80;;;8.20;83.20;;;;;;5121484;28;20047;-79
2022/04/18 01:07:40;;;;;;;16.70;13.20;;;8.20;83.40;;;;;;5101470;28;20046;-78
2022/04/18 01:10:07;;;;;;;15.75;13.85;;;8.10;83.70;;;;;;5119674;27;20439;-79
2022/04/18 01:12:38;;;;;;;16.98;14.27;;;8.10;84.60;;;;;;5105709;28;20081;-81
2022/04/18 01:15:04;;;;;;;14.82;13.10;;;8.00;85.00;;;;;;5100686;28;20051;-78
2022/04/18 01:17:30;;;;;;;17.40;13.68;;;8.00;85.40;;;;;;5104262;28;20063;-78
2022/04/18 01:19:55;;;;;;;15.98;13.48;;;7.90;86.10;;;;;;5082722;28;20055;-79
2022/04/18 01:22:25;;;;;;;15.75;13.45;;;7.80;86.70;;;;;;5120367;28;20111;-79
2022/04/18 01:30:19;;;;;;;15.23;13.40;;;7.70;88.10;;;;;;5104065;28;20047;-78
2022/04/18 01:32:45;;;;;;;17.30;13.90;;;7.70;89.70;;;;;;5085994;28;20520;-79
2022/04/18 01:35:11;;;;;;;16.35;14.35;;;7.60;89.20;;;;;;5120921;28;20147;-79
2022/04/18 01:37:37;;;;;;;16.48;14.02;;;7.50;89.70;;;;;;5100781;27;20153;-78
2022/04/18 01:40:04;;;;;;;17.38;13.63;;;7.50;89.90;;;;;;5121052;27;20043;-79
2022/04/18 01:42:30;;;;;;;15.13;13.52;;;7.40;90.10;;;;;;5116684;27;20050;-78
2022/04/18 01:44:57;;;;;;;15.68;13.55;;;7.40;90.20;;;;;;5124024;27;20043;-78
2022/04/18 01:47:23;;;;;;;15.90;13.70;;;7.40;90.60;;;;;;5124951;27;20050;-78
2022/04/18 01:49:49;;;;;;;15.32;13.73;;;7.30;90.90;;;;;;5071348;27;20091;-78
2022/04/18 01:52:15;;;;;;;15.90;14.18;;;7.30;91.40;;;;;;5105673;27;20051;-77
2022/04/18 01:54:41;;;;;;;17.63;14.57;;;7.20;91.50;;;;;;5106013;27;20051;-77
2022/04/18 01:57:07;;;;;;;15.65;13.32;;;7.20;91.70;;;;;;5124201;27;20080;-78
2022/04/18 01:59:35;;;;;;;16.20;13.40;;;7.20;91.70;;;;;;5123860;27;20185;-78
2022/04/18 02:02:01;;;;;;;14.85;12.90;;;7.20;91.60;;;;;;5120616;27;20051;-78
2022/04/18 02:04:27;;;;;;;15.90;13.52;;;7.20;91.50;;;;;;5108340;27;20042;-79
2022/04/18 02:06:53;;;;;;;15.20;13.60;;;7.10;91.40;;;;;;5108498;27;20062;-78
2022/04/18 02:09:19;;;;;;;14.98;13.38;;;7.10;91.30;;;;;;5105438;27;20062;-78
2022/04/18 02:11:45;;;;;;;15.18;13.52;;;7.10;91.40;;;;;;5087844;28;20035;-78
2022/04/18 02:14:12;;;;;;;15.70;13.45;;;7.10;91.40;;;;;;5095968;27;20121;-78
2022/04/18 02:16:37;;;;;;;15.23;13.45;;;7.10;91.40;;;;;;5127666;27;20426;-78
2022/04/18 02:19:03;;;;;;;16.08;13.80;;;7.20;91.20;;;;;;5094816;27;20102;-79
2022/04/18 02:21:30;;;;;;;16.30;14.60;;;7.10;91.10;;;;;;5128504;27;20047;-78
2022/04/18 02:23:56;;;;;;;18.23;14.18;;;7.10;91.20;;;;;;5094133;27;20575;-79
2022/04/18 02:26:21;;;;;;;16.05;13.52;;;7.10;91.40;;;;;;5111112;27;20137;-77
2022/04/18 02:28:48;;;;;;;16.02;13.38;;;7.10;91.40;;;;;;5128008;27;20048;-78
2022/04/18 02:31:13;;;;;;;15.98;13.63;;;7.10;91.30;;;;;;5110639;27;20054;-78
2022/04/18 02:33:39;;;;;;;16.42;13.52;;;7.10;91.30;;;;;;5125896;27;20100;-78
2022/04/18 02:36:05;;;;;;;17.08;13.52;;;7.10;91.10;;;;;;5127568;27;20043;-78
2022/04/18 02:38:31;;;;;;;15.18;13.52;;;7.10;90.90;;;;;;5091355;27;20043;-78
2022/04/18 02:40:57;;;;;;;16.48;14.02;;;7.10;90.90;;;;;;5092028;27;20039;-79
2022/04/18 02:43:22;;;;;;;15.73;14.02;;;7.10;90.90;;;;;;5108628;27;20054;-78
2022/04/18 02:45:48;;;;;;;16.73;14.30;;;7.10;90.90;;;;;;5091973;27;20055;-79
2022/04/18 02:48:14;;;;;;;15.32;13.63;;;7.10;91.00;;;;;;5076593;27;20054;-78
2022/04/18 02:50:40;;;;;;;17.48;13.88;;;7.00;91.20;;;;;;5094130;27;20054;-78
2022/04/18 02:53:06;;;;;;;16.17;13.95;;;7.00;91.40;;;;;;5110412;27;20576;-78
2022/04/18 02:55:34;;;;;;;16.08;14.43;;;7.00;91.70;;;;;;5091799;27;20043;-78
2022/04/18 02:58:00;;;;;;;15.93;14.07;;;6.90;91.90;;;;;;5109594;27;20043;-78
2022/04/18 03:00:26;;;;;;;15.50;13.50;;;6.90;92.00;;;;;;5094248;27;20054;-78
2022/04/18 03:02:52;;;;;;;19.60;15.23;;;6.80;92.10;;;;;;5112672;27;20042;-78
2022/04/18 03:05:17;;;;;;;15.77;14.00;;;6.90;92.40;;;;;;5095295;27;20492;-78
2022/04/18 03:07:43;;;;;;;16.20;14.50;;;6.80;92.60;;;;;;5106676;27;20058;-78
2022/04/18 03:10:09;;;;;;;18.50;14.50;;;6.80;92.90;;;;;;5089255;27;20137;-79
2022/04/18 03:12:36;;;;;;;16.83;13.70;;;6.70;93.00;;;;;;5129699;27;20092;-79
2022/04/18 03:15:02;;;;;;;17.55;14.95;;;6.70;93.30;;;;;;5088066;28;20524;-79
2022/04/18 03:17:28;;;;;;;16.45;14.65;;;6.70;93.50;;;;;;5072104;28;20039;-79
2022/04/18 03:19:54;;;;;;;16.65;14.88;;;6.60;93.70;;;;;;5091873;27;20571;-79
2022/04/18 03:22:20;;;;;;;16.85;13.95;;;6.60;93.90;;;;;;5109364;27;20051;-79
2022/04/18 03:24:46;;;;;;;16.65;14.85;;;6.50;94.20;;;;;;5127032;27;20043;-78
2022/04/18 03:27:12;;;;;;;17.92;14.73;;;6.60;94.10;;;;;;5120739;27;20086;-79
2022/04/18 03:29:38;;;;;;;19.00;14.75;;;6.60;94.30;;;;;;5108730;27;20393;-78
2022/04/18 03:32:05;;;;;;;18.13;14.77;;;6.50;94.30;;;;;;5108639;27;20137;-78
2022/04/18 03:34:31;;;;;;;16.30;14.10;;;6.50;94.50;;;;;;5108555;27;20054;-78
2022/04/18 03:39:50;;;;;;;15.98;14.27;;;6.50;94.60;;;;;;5103811;28;20086;-79
2022/04/18 03:42:29;;;;;;;18.52;15.15;;;6.50;94.70;;;;;;5088250;28;20044;-79
2022/04/18 03:44:58;;;;;;;17.58;14.98;;;6.50;94.70;;;;;;5099675;27;20047;-79
2022/04/18 03:47:24;;;;;;;15.85;13.73;;;6.40;94.70;;;;;;5125679;27;20051;-78
2022/04/18 03:49:50;;;;;;;17.42;14.70;;;6.50;94.80;;;;;;5125407;27;20084;-78
2022/04/18 03:52:16;;;;;;;15.82;14.13;;;6.40;94.90;;;;;;5114837;27;20444;-78
2022/04/18 03:54:43;;;;;;;16.70;14.57;;;6.40;95.00;;;;;;5095877;27;20051;-78
2022/04/18 03:57:10;;;;;;;17.92;14.80;;;6.40;95.00;;;;;;5124006;27;20077;-78
2022/04/18 03:59:35;;;;;;;17.77;15.45;;;6.40;94.90;;;;;;5106613;27;20043;-78
2022/04/18 04:02:02;;;;;;;16.90;14.65;;;6.40;94.80;;;;;;5087924;27;20374;-78
2022/04/18 04:04:29;;;;;;;17.30;13.98;;;6.40;94.70;;;;;;5090144;27;20081;-79
2022/04/18 04:06:55;;;;;;;17.35;15.43;;;6.40;94.80;;;;;;5106305;27;20216;-78
2022/04/18 04:09:20;;;;;;;17.27;14.45;;;6.40;94.80;;;;;;5124522;27;20039;-79
2022/04/18 04:11:46;;;;;;;18.88;14.18;;;6.40;94.90;;;;;;5087451;28;20453;-78
2022/04/18 04:14:12;;;;;;;16.67;14.50;;;6.40;95.10;;;;;;5123641;27;20043;-79
2022/04/18 04:16:38;;;;;;;16.77;14.50;;;6.40;95.20;;;;;;5109206;27;20069;-78
2022/04/18 04:19:05;;;;;;;15.63;13.85;;;6.30;95.30;;;;;;5110497;27;20705;-79
2022/04/18 04:21:31;;;;;;;15.93;14.20;;;6.30;95.50;;;;;;5108373;27;20039;-79
2022/04/18 04:23:57;;;;;;;16.15;14.23;;;6.30;95.70;;;;;;5106461;27;20039;-79
2022/04/18 04:26:23;;;;;;;17.02;14.73;;;6.30;95.70;;;;;;5141685;27;20167;-78
2022/04/18 04:28:49;;;;;;;16.70;14.85;;;6.30;95.90;;;;;;5106171;27;20713;-78
2022/04/18 04:31:15;;;;;;;15.23;13.38;;;6.20;96.20;;;;;;5105201;27;20690;-78
2022/04/18 04:33:40;;;;;;;17.08;14.45;;;6.30;96.40;;;;;;5108456;27;20099;-79
2022/04/18 04:36:06;;;;;;;15.55;13.57;;;6.20;96.50;;;;;;5125459;27;20121;-79
2022/04/18 04:38:35;;;;;;;14.43;12.68;;;6.20;96.70;;;;;;5089986;27;20051;-78
2022/04/18 04:41:02;;;;;;;16.33;13.63;;;6.20;96.80;;;;;;5089906;27;20031;-78
2022/04/18 04:43:31;;;;;;;16.02;14.27;;;6.20;97.00;;;;;;5127552;27;20085;-78
2022/04/18 04:45:57;;;;;;;15.57;13.98;;;6.20;97.20;;;;;;5090150;27;20062;-78
2022/04/18 04:48:24;;;;;;;15.70;13.18;;;6.20;97.30;;;;;;5123976;27;20078;-78
2022/04/18 04:50:49;;;;;;;18.40;14.82;;;6.20;97.30;;;;;;5125953;27;20035;-78
2022/04/18 04:53:18;;;;;;;17.60;14.60;;;6.20;97.40;;;;;;5123852;27;20061;-77
2022/04/18 04:55:45;;;;;;;16.27;13.98;;;6.30;97.50;;;;;;5126230;27;20042;-77
2022/04/18 04:58:11;;;;;;;15.82;14.15;;;6.30;97.80;;;;;;5110098;27;20043;-78
2022/04/18 05:00:38;;;;;;;15.48;13.77;;;6.30;98.00;;;;;;5106116;27;20926;-78
2022/04/18 05:03:05;;;;;;;15.68;13.85;;;6.30;98.10;;;;;;5108915;27;20042;-78
2022/04/18 05:05:32;;;;;;;16.70;14.60;;;6.30;98.10;;;;;;5125274;27;20045;-78
2022/04/18 05:07:58;;;;;;;15.90;13.73;;;6.40;98.10;;;;;;5109739;27;20085;-78
2022/04/18 05:10:24;;;;;;;15.13;13.52;;;6.40;98.10;;;;;;5108793;27;20042;-79
2022/04/18 05:12:50;;;;;;;15.57;13.77;;;6.50;98.30;;;;;;5092355;27;20111;-78
2022/04/18 05:15:16;;;;;;;17.27;14.75;;;6.50;98.30;;;;;;5077701;27;20054;-78
2022/04/18 05:17:42;;;;;;;17.73;14.45;;;6.50;98.10;;;;;;5096077;27;20090;-78
2022/04/18 05:20:09;;;;;;;16.30;13.70;;;6.60;98.10;;;;;;5095296;27;20481;-78
2022/04/18 05:22:35;;;;;;;16.50;13.18;;;6.70;97.90;;;;;;5093719;27;20046;-78
2022/04/18 05:25:01;;;;;;;15.55;13.10;;;6.80;97.70;;;;;;5130040;27;20107;-79
2022/04/18 05:27:27;;;;;;;14.77;13.23;;;6.80;97.50;;;;;;5130096;27;20125;-78
2022/04/18 05:29:53;;;;;;;15.02;13.43;;;6.90;97.60;;;;;;5130342;27;20129;-78
2022/04/18 05:32:18;;;;;;;15.38;13.60;;;6.90;97.70;;;;;;5110478;27;20043;-78
2022/04/18 05:34:44;;;;;;;16.08;13.32;;;7.00;97.50;;;;;;5112153;27;20042;-77
2022/04/18 05:37:10;;;;;;;17.27;14.20;;;7.10;97.10;;;;;;5129206;27;20031;-78
2022/04/18 05:39:36;;;;;;;14.85;13.00;;;7.20;97.20;;;;;;5127424;27;20107;-78
2022/04/18 05:42:03;;;;;;;15.02;12.73;;;7.20;97.00;;;;;;5113456;27;20039;-79
2022/04/18 05:44:33;;;;;;;15.88;14.13;;;7.30;96.90;;;;;;5110785;27;20130;-78
2022/04/18 05:47:01;;;;;;;15.48;13.07;;;7.40;96.60;;;;;;5129967;27;20050;-78
2022/04/18 05:49:27;;;;;;;15.25;13.32;;;7.50;96.60;;;;;;5093507;27;20100;-78
2022/04/18 05:51:53;;;;;;;14.95;13.38;;;7.50;96.20;;;;;;5127802;27;20624;-79
2022/04/18 05:54:19;;;;;;;16.73;13.70;;;7.60;96.00;;;;;;5113000;27;20046;-80
2022/04/18 05:56:45;;;;;;;14.80;13.20;;;7.70;96.00;;;;;;5110146;27;20054;-80
2022/04/18 05:59:11;;;;;;;15.88;14.18;;;7.70;96.00;;;;;;5079868;27;20064;-78
2022/04/18 06:01:37;;;;;;;15.68;13.50;;;7.80;96.00;;;;;;5095531;27;20134;-78
2022/04/18 06:04:03;;;;;;;14.65;12.88;;;7.90;95.80;;;;;;5095601;27;21770;-78
2022/04/18 06:06:29;;;;;;;15.23;13.63;;;7.90;95.90;;;;;;5095650;27;20048;-78
2022/04/18 06:08:54;;;;;;;14.98;13.13;;;8.00;95.90;;;;;;5112084;27;20496;-78
2022/04/18 06:11:20;;;;;;;14.90;13.00;;;8.10;95.40;;;;;;5113351;27;20081;-79
2022/04/18 06:13:46;;;;;;;17.73;14.00;;;8.20;94.80;;;;;;5111228;27;20049;-77
2022/04/18 06:16:12;;;;;;;14.95;13.38;;;8.20;94.80;;;;;;5106952;27;20059;-77
2022/04/18 06:18:38;;;;;;;14.68;13.18;;;8.30;94.60;;;;;;5106789;27;20047;-77
2022/04/18 06:21:04;;;;;;;14.55;12.88;;;8.40;94.30;;;;;;5082191;27;20044;-77
2022/04/18 06:23:30;;;;;;;15.57;13.63;;;8.40;94.30;;;;;;5108361;27;20099;-78
2022/04/18 06:25:55;;;;;;;17.98;13.63;;;8.50;94.50;;;;;;5100673;27;20044;-80
2022/04/18 06:28:21;;;;;;;17.75;13.65;;;8.60;93.60;;;;;;5121839;27;20051;-78
2022/04/18 06:30:47;;;;;;;16.35;13.35;;;8.80;93.60;;;;;;5125187;27;20043;-78
2022/04/18 06:33:13;;;;;;;15.25;12.90;;;8.80;93.50;;;;;;5116165;27;20044;-78
2022/04/18 06:35:41;;;;;;;15.30;12.43;;;8.90;93.30;;;;;;5090347;27;20107;-78
2022/04/18 06:38:07;;;;;;;17.13;13.82;;;9.10;93.20;;;;;;5081499;28;20044;-77
2022/04/18 06:40:33;;;;;;;13.45;12.05;;;9.20;91.80;;;;;;5105404;28;20051;-78
2022/04/18 06:42:59;;;;;;;17.60;13.73;;;9.30;91.40;;;;;;5078166;27;20059;-78
2022/04/18 06:45:27;;;;;;;14.65;12.45;;;9.40;91.40;;;;;;5088858;27;20043;-78
2022/04/18 06:47:53;;;;;;;14.70;12.80;;;9.40;91.50;;;;;;5122223;27;20054;-77
2022/04/18 06:50:20;;;;;;;15.85;13.00;;;9.60;90.60;;;;;;5091448;27;20051;-77
2022/04/18 06:52:54;;;;;;;14.70;12.13;;;9.70;90.10;;;;;;5107992;27;20062;-78
2022/04/18 06:55:20;;;;;;;14.70;12.55;;;9.80;89.30;;;;;;5101125;28;20131;-77
2022/04/18 06:57:45;;;;;;;15.68;12.70;;;9.80;88.40;;;;;;5095169;28;20051;-78
2022/04/18 07:00:11;;;;;;;14.63;13.10;;;9.90;87.90;;;;;;5072485;28;20044;-80
2022/04/18 07:02:47;;;;;;;15.00;12.98;;;10.00;86.90;;;;;;5102194;27;20102;-78
2022/04/18 07:05:13;;;;;;;15.10;12.77;;;10.10;87.60;;;;;;5121401;27;20054;-78
2022/04/18 07:07:38;;;;;;;15.80;13.27;;;10.20;87.20;;;;;;5112628;27;20044;-79
2022/04/18 07:10:05;;;;;;;14.18;12.13;;;10.30;85.70;;;;;;5114402;27;20053;-78
2022/04/18 07:12:31;;;;;;;15.10;13.18;;;10.50;84.90;;;;;;5080259;27;20040;-78
2022/04/18 07:14:59;;;;;;;14.60;12.45;;;10.60;83.60;;;;;;5116404;27;20082;-79
2022/04/18 07:17:25;;;;;;;16.13;12.02;;;10.70;82.00;;;;;;5090611;27;20051;-78
2022/04/18 07:19:51;;;;;;;14.18;12.02;;;10.90;81.50;;;;;;5107375;27;20080;-78
2022/04/18 07:22:17;;;;;;;14.30;12.65;;;11.00;81.50;;;;;;5107334;27;20405;-78
2022/04/18 07:24:42;;;;;;;14.38;11.63;;;11.20;79.30;;;;;;5089312;27;20324;-79
2022/04/18 07:27:08;;;;;;;16.25;12.23;;;11.30;77.60;;;;;;5122440;27;20050;-79
2022/04/18 07:29:34;;;;;;;15.40;12.30;;;11.50;76.00;;;;;;5107604;27;20043;-79
2022/04/18 07:32:00;;;;;;;13.30;11.32;;;11.60;76.20;;;;;;5107168;27;20050;-79
2022/04/18 07:34:26;;;;;;;15.43;12.55;;;11.80;74.40;;;;;;5106617;27;20062;-79
2022/04/18 07:36:52;;;;;;;16.90;11.80;;;12.00;72.90;;;;;;5103989;27;20105;-79
2022/04/18 07:39:17;;;;;;;13.70;11.23;;;12.10;71.90;;;;;;5084382;27;20040;-79
2022/04/18 07:41:43;;;;;;;11.63;10.43;;;12.20;71.30;;;;;;5106352;27;20588;-79
2022/04/18 07:44:09;;;;;;;13.52;11.13;;;12.40;68.20;;;;;;5106402;27;20068;-79
2022/04/18 07:46:35;;;;;;;12.43;10.68;;;12.50;63.60;;;;;;5105758;27;20074;-77
2022/04/18 07:49:00;;;;;;;12.65;10.43;;;12.60;62.40;;;;;;5123670;27;20043;-79
2022/04/18 07:51:35;;;;;;;13.65;10.35;;;12.70;62.00;;;;;;5088570;27;20047;-81
2022/04/18 07:54:04;;;;;;;12.50;10.23;;;12.70;62.70;;;;;;5121794;27;20051;-79
2022/04/18 07:56:30;;;;;;;12.30;10.95;;;12.90;62.10;;;;;;5107288;27;20251;-79
2022/04/18 07:58:56;;;;;;;11.90;10.23;;;13.00;62.50;;;;;;5088800;27;20051;-79
2022/04/18 08:01:22;;;;;;;12.70;10.45;;;13.10;61.00;;;;;;5107758;27;20047;-79
2022/04/18 08:03:48;;;;;;;11.82;9.20;;;13.20;61.60;;;;;;5124271;27;20047;-78
2022/04/18 08:06:16;;;;;;;13.38;9.35;;;13.40;60.20;;;;;;5107783;27;20370;-78
2022/04/18 08:08:42;;;;;;;11.85;9.70;;;13.60;58.90;;;;;;5106205;27;20584;-79
2022/04/18 08:11:11;;;;;;;14.07;9.05;;;13.70;59.20;;;;;;5071782;28;20444;-79
2022/04/18 08:13:44;;;;;;;11.23;9.10;;;13.90;58.10;;;;;;5122689;27;20050;-79
2022/04/18 08:16:11;;;;;;;12.73;9.20;;;14.00;58.10;;;;;;5106471;27;20126;-79
2022/04/18 08:18:39;;;;;;;12.27;9.63;;;14.00;57.40;;;;;;5096229;27;20047;-79
2022/04/18 08:21:08;;;;;;;10.50;8.77;;;14.10;57.10;;;;;;5112628;27;20068;-78
2022/04/18 08:23:35;;;;;;;10.10;8.97;;;14.30;57.20;;;;;;5082433;27;20581;-78
2022/04/18 08:26:02;;;;;;;10.63;8.73;;;14.40;57.60;;;;;;5118345;27;20051;-78
2022/04/18 08:28:28;;;;;;;11.63;9.13;;;14.60;57.40;;;;;;5106163;28;20337;-79
2022/04/18 08:30:57;;;;;;;10.65;8.88;;;14.80;57.60;;;;;;5079032;28;20047;-78
2022/04/18 08:33:24;;;;;;;11.90;9.43;;;14.90;56.90;;;;;;5094883;28;20477;-79
2022/04/18 08:35:50;;;;;;;11.98;9.05;;;15.00;56.50;;;;;;5107974;27;20096;-78
2022/04/18 08:38:16;;;;;;;12.55;9.20;;;15.00;56.50;;;;;;5101004;28;20047;-78
2022/04/18 08:40:48;;;;;;;10.32;8.90;;;15.00;56.30;;;;;;5086066;28;20062;-78
2022/04/18 08:43:14;;;;;;;11.25;8.98;;;15.10;55.90;;;;;;5125141;27;20084;-80
2022/04/18 08:45:40;;;;;;;12.50;9.07;;;15.20;55.10;;;;;;5106431;28;20039;-79
2022/04/18 08:53:37;;;;;;;12.88;10.23;;;15.40;55.00;;;;;;5125142;27;20051;-77
2022/04/18 08:56:06;;;;;;;10.95;8.82;;;15.50;55.00;;;;;;5118681;27;20105;-79
2022/04/18 08:58:35;;;;;;;10.88;8.90;;;15.50;54.60;;;;;;5106497;27;20047;-78
2022/04/18 09:01:03;;;;;;;11.32;9.30;;;15.60;54.30;;;;;;5089632;27;20481;-78
2022/04/18 09:03:28;;;;;;;12.85;9.60;;;15.70;54.60;;;;;;5091339;27;20111;-79
2022/04/18 09:06:05;;;;;;;11.73;9.10;;;15.70;54.50;;;;;;5092151;27;20055;-80
2022/04/18 09:08:34;;;;;;;11.43;8.65;;;15.80;54.60;;;;;;5128049;27;20039;-81
2022/04/18 09:11:00;;;;;;;12.15;9.38;;;15.90;54.30;;;;;;5110439;27;20489;-78
2022/04/18 09:13:26;;;;;;;10.85;8.48;;;16.00;54.00;;;;;;5126557;27;20068;-78
2022/04/18 09:15:51;;;;;;;10.35;8.32;;;16.10;54.80;;;;;;5127562;27;20138;-78
2022/04/18 09:18:23;;;;;;;11.20;8.77;;;16.20;54.90;;;;;;5124555;27;20050;-78
2022/04/18 09:20:56;;;;;;;14.15;7.90;;;16.40;54.40;;;;;;5110216;27;20081;-77
2022/04/18 09:23:23;;;;;;;10.70;8.32;;;16.40;53.60;;;;;;5126368;27;20703;-77
2022/04/18 09:26:00;;;;;;;10.02;8.45;;;16.50;52.60;;;;;;5126676;27;20043;-78
2022/04/18 09:28:35;;;;;;;10.73;8.60;;;16.60;53.00;;;;;;5108332;27;20050;-77
2022/04/18 09:31:09;;;;;;;10.50;8.18;;;16.80;53.30;;;;;;5126127;27;20043;-77
2022/04/18 09:33:38;;;;;;;11.13;8.63;;;16.90;52.20;;;;;;5127248;27;20489;-77
2022/04/18 09:36:24;;;;;;;10.23;8.13;;;17.00;52.60;;;;;;5109340;27;20142;-80
2022/04/18 09:38:55;;;;;;;9.02;7.32;;;17.10;52.50;;;;;;5126271;27;20151;-78
2022/04/18 09:41:31;;;;;;;10.65;7.65;;;17.20;50.70;;;;;;5127177;27;20047;-78
2022/04/18 09:44:00;;;;;;;10.65;7.90;;;17.30;50.50;;;;;;5125120;27;20047;-80
2022/04/18 09:46:27;;;;;;;9.20;7.78;;;17.50;51.30;;;;;;5107979;27;20047;-78
2022/04/18 09:48:59;;;;;;;10.98;8.23;;;17.50;50.50;;;;;;5107527;27;20070;-79
2022/04/18 09:51:29;;;;;;;10.00;7.40;;;17.60;50.40;;;;;;5124946;27;20502;-79
2022/04/18 09:53:57;;;;;;;9.15;7.30;;;17.60;50.40;;;;;;5109526;27;20119;-78
2022/04/18 09:56:25;;;;;;;12.60;7.88;;;17.80;50.10;;;;;;5109452;27;20122;-80
2022/04/18 09:58:53;;;;;;;9.77;7.70;;;17.90;50.70;;;;;;5123616;27;20147;-79
2022/04/18 10:01:19;;;;;;;8.45;6.28;;;18.00;50.30;;;;;;5109725;27;20043;-79
2022/04/18 10:03:48;;;;;;;10.52;7.22;;;18.00;49.10;;;;;;5126261;27;20520;-81
2022/04/18 10:06:14;;;;;;;9.68;7.53;;;18.10;48.60;;;;;;5126684;27;20115;-78
2022/04/18 10:08:39;;;;;;;8.48;7.45;;;18.10;49.40;;;;;;5125805;27;20043;-79
2022/04/18 10:11:13;;;;;;;10.10;7.32;;;18.20;49.50;;;;;;5127695;27;20067;-79
2022/04/18 10:13:39;;;;;;;10.75;8.32;;;18.40;49.30;;;;;;5106898;27;20058;-77
2022/04/18 10:16:06;;;;;;;10.57;7.10;;;18.50;49.00;;;;;;5126092;27;20057;-80
2022/04/18 10:18:46;;;;;;;8.35;6.72;;;18.70;48.60;;;;;;5109610;27;20067;-79
2022/04/18 10:21:20;;;;;;;10.17;6.33;;;18.80;48.10;;;;;;5110263;27;20055;-79
2022/04/18 10:24:14;;;;;;;10.10;7.20;;;18.80;46.90;;;;;;5114676;27;20142;-80
2022/04/18 10:26:57;;;;;;;8.68;7.38;;;18.90;47.30;;;;;;5091461;28;20060;-78
2022/04/18 10:30:00;;;;;;;12.52;7.32;;;19.00;46.40;;;;;;5107584;27;20114;-78
2022/04/18 10:32:27;;;;;;;9.35;7.03;;;19.10;46.80;;;;;;5105672;27;20066;-78
2022/04/18 10:34:59;;;;;;;8.52;6.90;;;19.20;46.30;;;;;;5108248;27;20035;-78
2022/04/18 10:37:27;;;;;;;9.95;7.43;;;19.30;45.70;;;;;;5122448;27;20367;-78
2022/04/18 10:40:05;;;;;;;9.13;7.03;;;19.20;45.20;;;;;;5105868;28;20589;-80
2022/04/18 10:42:35;;;;;;;8.68;6.13;;;19.30;47.50;;;;;;5107255;28;20393;-78
2022/04/18 10:45:11;;;;;;;;;;;19.40;46.30;;;;;;5111886;27;20036;-80
2022/04/18 10:47:55;;;;;;;8.05;6.03;;;19.30;44.00;;;;;;5110447;27;19966;-81
2022/04/18 10:50:24;;;;;;;7.68;6.65;;;19.30;43.90;;;;;;5110699;27;20666;-81
2022/04/18 10:53:19;;;;;;;7.68;5.55;;;19.20;44.60;;;;;;5090958;28;20493;-79
2022/04/18 10:55:51;;;;;;;9.13;6.60;;;19.20;46.00;;;;;;5093375;27;20057;-77
2022/04/18 10:58:22;;;;;;;8.45;6.22;;;19.40;45.40;;;;;;5098853;27;20031;-79
2022/04/18 11:00:53;;;;;;;6.15;5.00;;;19.50;43.50;;;;;;5105174;27;20051;-80
2022/04/18 11:03:56;;;;;;;8.10;6.30;;;19.70;44.50;;;;;;5121049;27;20054;-81
2022/04/18 11:06:32;;;;;;;7.70;6.45;;;19.80;44.40;;;;;;5089745;28;20282;-79
2022/04/18 11:09:07;;;;;;;8.20;6.38;;;19.80;44.20;;;;;;5104548;28;20044;-80
2022/04/18 11:11:55;;;;;;;7.20;5.40;;;19.90;43.50;;;;;;5110709;27;20393;-79
2022/04/18 11:14:21;;;;;;;8.18;5.50;;;20.00;43.70;;;;;;5121321;27;20043;-80
2022/04/18 11:16:54;;;;;;;8.68;5.47;;;20.00;43.60;;;;;;5079984;27;20053;-80
2022/04/18 11:19:24;;;;;;;7.97;4.80;;;20.00;42.10;;;;;;5113173;27;20051;-81
2022/04/18 11:24:56;;;;;;;6.53;4.75;;;20.20;41.80;;;;;;5103930;28;20055;-83
2022/04/18 11:27:25;;;;;;;5.90;4.03;;;20.20;40.60;;;;;;5101117;27;20047;-82
2022/04/18 11:29:56;;;;;;;5.10;4.00;;;20.20;39.60;;;;;;5107984;27;20047;-80
2022/04/18 11:32:27;;;;;;;8.10;4.60;;;20.20;39.20;;;;;;5101573;28;20482;-81
2022/04/18 11:34:56;;;;;;;5.60;3.40;;;20.30;40.70;;;;;;5122637;27;20365;-82
2022/04/18 11:37:24;;;;;;;5.32;4.03;;;20.30;39.80;;;;;;5111496;27;20039;-80
2022/04/18 11:39:52;;;;;;;5.22;3.90;;;20.40;39.00;;;;;;5117080;27;20047;-80
2022/04/18 11:42:23;;;;;;;5.30;3.90;;;20.40;39.10;;;;;;5125617;27;20046;-80
2022/04/18 11:44:52;;;;;;;7.30;4.20;;;20.50;39.50;;;;;;5085575;27;20406;-81
2022/04/18 11:47:27;;;;;;;7.23;4.57;;;20.60;38.60;;;;;;5113779;27;20034;-80
2022/04/18 11:50:01;;;;;;;8.25;4.00;;;20.50;36.50;;;;;;5113130;27;20537;-80
2022/04/18 11:52:29;;;;;;;6.25;4.05;;;20.40;37.00;;;;;;5109237;27;20054;-80
2022/04/18 11:54:57;;;;;;;6.22;4.32;;;20.30;39.10;;;;;;5087838;28;20048;-80
2022/04/18 11:57:24;;;;;;;5.88;4.30;;;20.50;39.90;;;;;;5121322;27;20565;-79
2022/04/18 11:59:50;;;;;;;5.68;4.18;;;20.60;40.20;;;;;;5103582;28;20051;-80
2022/04/18 12:07:46;;;;;;;5.47;4.25;;;20.90;38.00;;;;;;5117236;27;20061;-78
2022/04/18 12:10:26;;;;;;;5.60;4.18;;;20.80;35.70;;;;;;5089069;27;20094;-79
2022/04/18 12:12:53;;;;;;;6.20;3.88;;;20.70;34.90;;;;;;5109846;27;20199;-79
2022/04/18 12:15:23;;;;;;;7.47;5.03;;;20.70;35.70;;;;;;5119571;27;20055;-77
2022/04/18 12:17:51;;;;;;;7.47;4.50;;;20.70;36.50;;;;;;5092089;28;20052;-78
2022/04/18 12:20:20;;;;;;;5.68;4.20;;;20.80;36.50;;;;;;5097143;28;20040;-80
2022/04/18 12:22:52;;;;;;;6.57;4.55;;;20.80;38.70;;;;;;5088063;28;20060;-78
2022/04/18 12:25:20;;;;;;;7.18;5.03;;;20.90;36.80;;;;;;5112143;27;20054;-80
2022/04/18 12:27:49;;;;;;;5.88;4.80;;;20.80;37.40;;;;;;5105197;28;20091;-81
2022/04/18 12:30:15;;;;;;;7.10;5.07;;;20.80;37.60;;;;;;5090471;28;20040;-78
2022/04/18 12:32:44;;;;;;;6.18;4.75;;;20.80;36.90;;;;;;5080975;28;20060;-78
2022/04/18 12:35:10;;;;;;;7.00;4.65;;;20.80;37.20;;;;;;5083715;28;20043;-78
2022/04/18 12:37:36;;;;;;;8.52;5.07;;;20.80;37.50;;;;;;5084249;28;20059;-79
2022/04/18 12:40:16;;;;;;;5.93;5.03;;;20.90;37.10;;;;;;5082681;28;20331;-78
2022/04/18 12:42:52;;;;;;;7.22;5.47;;;21.00;36.40;;;;;;5079747;28;20060;-77
2022/04/18 12:45:18;;;;;;;7.65;5.20;;;21.10;36.70;;;;;;5087562;28;20530;-78
2022/04/18 12:47:44;;;;;;;7.78;5.70;;;21.00;36.50;;;;;;5113363;27;20047;-79
2022/04/18 12:50:13;;;;;;;8.15;5.20;;;21.00;36.60;;;;;;5110390;28;20036;-78
2022/04/18 12:52:51;;;;;;;6.25;4.50;;;20.90;36.60;;;;;;5092283;28;20048;-79
2022/04/18 12:55:29;;;;;;;6.05;4.80;;;21.00;38.00;;;;;;5116100;28;20048;-79
2022/04/18 12:57:56;;;;;;;6.90;4.90;;;21.20;37.60;;;;;;5109776;28;20402;-80
2022/04/18 13:00:23;;;;;;;6.90;5.07;;;21.40;38.20;;;;;;5120670;28;20417;-79
2022/04/18 13:02:59;;;;;;;6.95;5.25;;;21.60;37.60;;;;;;5106386;28;20105;-80
2022/04/18 13:05:33;;;;;;;8.43;5.35;;;21.70;37.20;;;;;;5100853;28;20051;-79